Flight Track Log - Related Links

Times and Time Zones

All times are in EDT time to prevent confusion due to time zone crossing. See the EGF3352 flight status page for this flight to view local times or setup timezone preferences in your user account.

Time Position Orientation Groundspeed Altitude Reporting Facility
EDT Latitude Longitude Course Direction KTS MPH feet Rate Location/Type
Wed 03:31:15 PM 30.4141 -89.0963 162° South  Level FlightAware
Wed 03:32:15 PM 30.4403 -89.2016 131° Southeast  Level FlightAware
Wed 03:33:42 PM 30.3383 -89.0672 282° West 238 274 3,000  Level Houston Center
Wed 03:34:42 PM 30.3522 -89.1461 288° West 281 323 5,500 2,350 Climbing Houston Center
Wed 03:35:42 PM 30.3767 -89.2322 289° West 286 329 7,700 2,200 Climbing Houston Center
Wed 03:36:42 PM 30.4033 -89.3206 287° West 286 329 9,900 2,000 Climbing Houston Center
Wed 03:37:42 PM 30.4278 -89.4164 279° West 298 343 11,700 1,650 Climbing Houston Center
Wed 03:38:42 PM 30.4419 -89.5172 284° West 311 358 13,200 1,350 Climbing Houston Center
Wed 03:39:42 PM 30.4644 -89.6203 281° West 322 371 14,400 1,350 Climbing Houston Center
Wed 03:40:42 PM 30.4828 -89.7308 281° West 340 391 15,900 1,400 Climbing Houston Center
Wed 03:41:42 PM 30.4989 -89.8317 281° West 354 407 17,200 1,550 Climbing Houston Center
Wed 03:42:42 PM 30.5169 -89.9447 290° West 354 407 19,000 1,300 Climbing Houston Center
Wed 03:43:42 PM 30.5497 -90.0503 304° West 354 407 19,800 850 Climbing Houston Center
Wed 03:44:42 PM 30.6072 -90.1483 310° West 367 422 20,700 1,150 Climbing Houston Center
Wed 03:45:42 PM 30.6750 -90.2414 314° West 367 422 22,100 1,200 Climbing Houston Center
Wed 03:46:42 PM 30.7489 -90.3297 320° Northwest 373 429 23,100 900 Climbing Houston Center
Wed 03:47:42 PM 30.8269 -90.4061 302° West 373 429 23,900 750 Climbing Houston Center
Wed 03:48:42 PM 30.8800 -90.5069 284° West 367 422 24,600 700 Climbing Houston Center
Wed 03:49:42 PM 30.9039 -90.6231 275° West 356 410 25,300 800 Climbing Houston Center
Wed 03:50:42 PM 30.9131 -90.7439 274° West 363 418 26,200 850 Climbing Houston Center
Wed 03:51:42 PM 30.9200 -90.8647 274° West 374 430 27,000 850 Climbing Houston Center
Wed 03:52:42 PM 30.9269 -90.9833 272° West 374 430 27,900 800 Climbing Houston Center
Wed 03:53:42 PM 30.9317 -91.1189 267° West 374 430 28,600 700 Climbing Houston Center
Wed 03:54:42 PM 30.9258 -91.2400 263° West 374 430 29,300 600 Climbing Houston Center
Wed 03:55:42 PM 30.9117 -91.3658 282° West 385 443 29,800 550 Climbing Houston Center
Wed 03:56:42 PM 30.9347 -91.4942 291° West 392 451 30,400 600 Climbing Houston Center
Wed 03:57:42 PM 30.9767 -91.6200 290° West 397 457 31,000 550 Climbing Houston Center
Wed 03:58:42 PM 31.0183 -91.7508 290° West 416 479 31,500 500 Climbing Houston Center
Wed 03:59:42 PM 31.0600 -91.8817 291° West 425 489 32,000 350 Climbing Houston Center
Wed 04:00:42 PM 31.1033 -92.0150 290° West 435 501 32,200 600 Climbing Houston Center
Wed 04:01:42 PM 31.1428 -92.1414 291° West 447 514 33,200 900 Climbing Houston Center
Wed 04:02:42 PM 31.1839 -92.2678 293° West 447 514 34,000 550 Climbing Houston Center
Wed 04:03:42 PM 31.2314 -92.3992 303° West 447 514 34,300 750 Climbing Houston Center
Wed 04:04:42 PM 31.2933 -92.5114 303° West 427 491 35,500 850 Climbing Houston Center
Wed 04:05:42 PM 31.3550 -92.6211 301° West 412 474 36,000 250 Climbing Houston Center
Wed 04:06:42 PM 31.4106 -92.7289 291° West 406 467 36,000  Level Houston Center
Wed 04:07:42 PM 31.4514 -92.8533 290° West 401 461 36,000  Level Houston Center
Wed 04:08:42 PM 31.4897 -92.9781 291° West 401 461 36,000  Level Houston Center
Wed 04:09:42 PM 31.5281 -93.0978 290° West 401 461 36,000  Level Houston Center
Wed 04:11:22 PM 31.5981 -93.3258 290° West 409 471 36,000  Level Fort Center
Wed 04:12:22 PM 31.6378 -93.4558 290° West 419 482 36,000  Level Fort Center
Wed 04:13:22 PM 31.6772 -93.5833 289° West 419 482 36,000  Level Fort Center
Wed 04:14:22 PM 31.7142 -93.7089 289° West 419 482 36,000  Level Fort Center
Wed 04:15:22 PM 31.7511 -93.8319 283° West 419 482 36,000  Level Fort Center
Wed 04:16:22 PM 31.7756 -93.9556 284° West 406 467 36,000  Level Fort Center
Wed 04:17:22 PM 31.7994 -94.0672 283° West 401 461 36,000  Level Fort Center
Wed 04:18:22 PM 31.8236 -94.1958 284° West 401 461 36,000  Level Fort Center
Wed 04:19:22 PM 31.8497 -94.3219 282° West 401 461 36,000  Level Fort Center
Wed 04:20:22 PM 31.8739 -94.4533 283° West 401 461 36,000  Level Fort Center
Wed 04:21:22 PM 31.9000 -94.5894 283° West 417 480 36,000  Level Fort Center
Wed 04:22:22 PM 31.9258 -94.7233 283° West 417 480 36,000  Level Fort Center
Wed 04:23:22 PM 31.9514 -94.8547 281° West 417 480 36,000  Level Fort Center
Wed 04:24:22 PM 31.9728 -94.9839 284° West 417 480 36,000  Level Fort Center
Wed 04:25:22 PM 32.0003 -95.1156 282° West 417 480 36,000  Level Fort Center
Wed 04:26:22 PM 32.0236 -95.2472 283° West 411 473 36,000  Level Fort Center
Wed 04:27:22 PM 32.0486 -95.3767 291° West 411 473 36,000 -350 Level Fort Center
Wed 04:28:22 PM 32.0903 -95.5056 292° West 411 473 35,300 -1,750 Descending Fort Center
Wed 04:29:22 PM 32.1342 -95.6372 291° West 417 480 32,500 -2,750 Descending Fort Center
Wed 04:30:22 PM 32.1775 -95.7689 289° West 417 480 29,800 -2,700 Descending Fort Center
Wed 04:31:22 PM 32.2147 -95.8983 291° West 417 480 27,100 -2,700 Descending Fort Center
Wed 04:32:22 PM 32.2536 -96.0206 292° West 417 480 24,400 -2,585 Descending Fort Center
Wed 04:33:32 PM 32.2944 -96.1419 289° West 373 429 21,500 -2,509 Descending FAA TRACON
Wed 04:34:12 PM 32.3178 -96.2228 290° West 374 430 19,800 -2,475 Descending FAA TRACON
Wed 04:34:52 PM 32.3422 -96.3011 290° West 367 422 18,200 -2,494 Descending FAA TRACON
Wed 04:35:29 PM 32.3644 -96.3733 294° West 380 437 16,600 -2,538 Descending FAA TRACON
Wed 04:36:10 PM 32.3956 -96.4547 314° West 395 455 14,900 -2,488 Descending FAA TRACON
Wed 04:36:51 PM 32.4472 -96.5181 314° West 384 442 13,200 -2,370 Descending FAA TRACON
Wed 04:37:31 PM 32.4908 -96.5725 314° West 369 425 11,700 -1,725 Descending FAA TRACON
Wed 04:38:11 PM 32.5394 -96.6314 314° West 359 413 10,900 -519 Descending FAA TRACON
Wed 04:38:52 PM 32.5869 -96.6892 315° West 353 406 11,000 74 Climbing FAA TRACON
Wed 04:39:32 PM 32.6303 -96.7406 314° West 357 411 11,000 -76 Level FAA TRACON
Wed 04:40:11 PM 32.6775 -96.7978 314° West 351 404 10,900 -75 Descending FAA TRACON
Wed 04:40:52 PM 32.7172 -96.8469 313° West 290 334 10,900 -148 Level FAA TRACON
Wed 04:41:32 PM 32.7475 -96.8858 344° North 255 293 10,700 -900 Descending FAA TRACON
Wed 04:42:12 PM 32.7928 -96.9017 360° North 255 293 9,700 -1,462 Descending FAA TRACON
Wed 04:42:50 PM 32.8361 -96.9019 North 253 291 8,800 -1,443 Descending FAA TRACON
Wed 04:43:31 PM 32.8853 -96.9014 359° North 253 291 7,800 -1,556 Descending FAA TRACON
Wed 04:44:11 PM 32.9336 -96.9025 352° North 251 289 6,700 -1,650 Descending FAA TRACON
Wed 04:44:51 PM 32.9811 -96.9103 350° North 247 284 5,600 -1,291 Descending FAA TRACON
Wed 04:45:30 PM 33.0233 -96.9192 316° Northwest 246 283 5,000 -525 Descending FAA TRACON
Wed 04:46:11 PM 33.0536 -96.9536 316° Northwest 239 275 4,900 -146 Descending FAA TRACON

Login

Don't have an account? Register now (free) for customized features, flight alerts, and more!